sensor_id;sensor_type;location;lat;lon;timestamp;P1;durP1;ratioP1;P2;durP2;ratioP2
18286;SDS011;9269;50.838;12.094;2023-09-08T00:01:07;8.80;;;7.90;;
18286;SDS011;9269;50.838;12.094;2023-09-08T00:03:36;9.13;;;8.23;;
18286;SDS011;9269;50.838;12.094;2023-09-08T00:06:05;10.10;;;7.80;;
18286;SDS011;9269;50.838;12.094;2023-09-08T00:08:33;11.60;;;8.10;;
18286;SDS011;9269;50.838;12.094;2023-09-08T00:11:02;8.87;;;7.80;;
18286;SDS011;9269;50.838;12.094;2023-09-08T00:13:33;9.57;;;8.57;;
18286;SDS011;9269;50.838;12.094;2023-09-08T00:16:21;10.17;;;9.10;;
18286;SDS011;9269;50.838;12.094;2023-09-08T00:18:50;12.10;;;8.47;;
18286;SDS011;9269;50.838;12.094;2023-09-08T00:21:18;10.13;;;9.17;;
18286;SDS011;9269;50.838;12.094;2023-09-08T00:23:47;10.83;;;8.40;;
18286;SDS011;9269;50.838;12.094;2023-09-08T00:26:15;13.50;;;8.83;;
18286;SDS011;9269;50.838;12.094;2023-09-08T00:28:45;10.03;;;7.50;;
18286;SDS011;9269;50.838;12.094;2023-09-08T00:31:15;8.73;;;7.83;;
18286;SDS011;9269;50.838;12.094;2023-09-08T00:34:03;8.57;;;7.87;;
18286;SDS011;9269;50.838;12.094;2023-09-08T00:36:36;8.50;;;7.60;;
18286;SDS011;9269;50.838;12.094;2023-09-08T00:39:05;8.40;;;7.60;;
18286;SDS011;9269;50.838;12.094;2023-09-08T00:41:34;8.57;;;7.70;;
18286;SDS011;9269;50.838;12.094;2023-09-08T00:44:04;10.57;;;8.50;;
18286;SDS011;9269;50.838;12.094;2023-09-08T00:46:31;9.37;;;7.93;;
18286;SDS011;9269;50.838;12.094;2023-09-08T00:49:01;10.57;;;9.47;;
18286;SDS011;9269;50.838;12.094;2023-09-08T00:51:29;9.87;;;8.97;;
18286;SDS011;9269;50.838;12.094;2023-09-08T00:53:58;11.83;;;10.73;;
18286;SDS011;9269;50.838;12.094;2023-09-08T00:56:27;13.27;;;11.27;;
18286;SDS011;9269;50.838;12.094;2023-09-08T00:58:58;12.90;;;10.63;;
18286;SDS011;9269;50.838;12.094;2023-09-08T01:01:29;13.93;;;11.53;;
18286;SDS011;9269;50.838;12.094;2023-09-08T01:03:58;13.70;;;11.87;;
18286;SDS011;9269;50.838;12.094;2023-09-08T01:06:26;11.90;;;10.17;;
18286;SDS011;9269;50.838;12.094;2023-09-08T01:08:55;11.53;;;10.33;;
18286;SDS011;9269;50.838;12.094;2023-09-08T01:11:24;10.63;;;9.53;;
18286;SDS011;9269;50.838;12.094;2023-09-08T01:13:54;10.57;;;9.40;;
18286;SDS011;9269;50.838;12.094;2023-09-08T01:16:22;10.23;;;8.87;;
18286;SDS011;9269;50.838;12.094;2023-09-08T01:18:58;10.60;;;9.50;;
18286;SDS011;9269;50.838;12.094;2023-09-08T01:21:35;9.43;;;8.63;;
18286;SDS011;9269;50.838;12.094;2023-09-08T01:24:32;13.10;;;9.33;;
18286;SDS011;9269;50.838;12.094;2023-09-08T01:27:19;11.87;;;10.23;;
18286;SDS011;9269;50.838;12.094;2023-09-08T01:29:50;11.53;;;9.87;;
18286;SDS011;9269;50.838;12.094;2023-09-08T01:32:19;11.87;;;10.67;;
18286;SDS011;9269;50.838;12.094;2023-09-08T01:34:49;12.70;;;11.40;;
18286;SDS011;9269;50.838;12.094;2023-09-08T01:37:17;13.13;;;10.50;;
18286;SDS011;9269;50.838;12.094;2023-09-08T01:39:45;13.83;;;11.87;;
18286;SDS011;9269;50.838;12.094;2023-09-08T01:42:14;12.90;;;11.63;;
18286;SDS011;9269;50.838;12.094;2023-09-08T01:44:44;11.97;;;10.63;;
18286;SDS011;9269;50.838;12.094;2023-09-08T01:47:13;13.37;;;10.07;;
18286;SDS011;9269;50.838;12.094;2023-09-08T01:49:41;14.07;;;12.57;;
18286;SDS011;9269;50.838;12.094;2023-09-08T01:52:09;13.00;;;11.23;;
18286;SDS011;9269;50.838;12.094;2023-09-08T01:54:38;13.17;;;11.57;;
18286;SDS011;9269;50.838;12.094;2023-09-08T01:57:07;13.00;;;11.70;;
18286;SDS011;9269;50.838;12.094;2023-09-08T01:59:36;13.33;;;12.03;;
18286;SDS011;9269;50.838;12.094;2023-09-08T02:02:06;16.17;;;11.87;;
18286;SDS011;9269;50.838;12.094;2023-09-08T02:04:40;14.83;;;12.17;;
18286;SDS011;9269;50.838;12.094;2023-09-08T02:07:15;12.37;;;11.07;;
18286;SDS011;9269;50.838;12.094;2023-09-08T02:09:44;12.03;;;10.83;;
18286;SDS011;9269;50.838;12.094;2023-09-08T02:12:14;12.80;;;10.17;;
18286;SDS011;9269;50.838;12.094;2023-09-08T02:14:42;12.17;;;10.97;;
18286;SDS011;9269;50.838;12.094;2023-09-08T02:17:13;12.50;;;11.23;;
18286;SDS011;9269;50.838;12.094;2023-09-08T02:19:42;11.33;;;10.30;;
18286;SDS011;9269;50.838;12.094;2023-09-08T02:22:11;14.37;;;12.90;;
18286;SDS011;9269;50.838;12.094;2023-09-08T02:24:58;12.07;;;10.87;;
18286;SDS011;9269;50.838;12.094;2023-09-08T02:27:27;12.13;;;10.50;;
18286;SDS011;9269;50.838;12.094;2023-09-08T02:29:56;12.50;;;11.27;;
18286;SDS011;9269;50.838;12.094;2023-09-08T02:32:26;15.00;;;12.07;;
18286;SDS011;9269;50.838;12.094;2023-09-08T02:34:55;12.97;;;11.67;;
18286;SDS011;9269;50.838;12.094;2023-09-08T02:37:24;14.80;;;13.03;;
18286;SDS011;9269;50.838;12.094;2023-09-08T02:39:52;17.07;;;15.00;;
18286;SDS011;9269;50.838;12.094;2023-09-08T02:42:21;15.90;;;13.13;;
18286;SDS011;9269;50.838;12.094;2023-09-08T02:44:50;17.53;;;14.93;;
18286;SDS011;9269;50.838;12.094;2023-09-08T02:47:18;16.57;;;12.20;;
18286;SDS011;9269;50.838;12.094;2023-09-08T02:49:49;14.57;;;11.60;;
18286;SDS011;9269;50.838;12.094;2023-09-08T02:52:17;15.97;;;11.90;;
18286;SDS011;9269;50.838;12.094;2023-09-08T02:54:47;13.00;;;10.40;;
18286;SDS011;9269;50.838;12.094;2023-09-08T02:57:16;11.67;;;10.47;;
18286;SDS011;9269;50.838;12.094;2023-09-08T02:59:48;11.07;;;10.07;;
18286;SDS011;9269;50.838;12.094;2023-09-08T03:02:17;12.83;;;10.83;;
18286;SDS011;9269;50.838;12.094;2023-09-08T03:04:46;10.47;;;9.10;;
18286;SDS011;9269;50.838;12.094;2023-09-08T03:07:22;10.57;;;9.43;;
18286;SDS011;9269;50.838;12.094;2023-09-08T03:09:50;10.10;;;9.17;;
18286;SDS011;9269;50.838;12.094;2023-09-08T03:12:19;9.60;;;8.80;;
18286;SDS011;9269;50.838;12.094;2023-09-08T03:14:48;10.53;;;9.43;;
18286;SDS011;9269;50.838;12.094;2023-09-08T03:17:17;11.17;;;9.97;;
18286;SDS011;9269;50.838;12.094;2023-09-08T03:19:45;10.30;;;9.23;;
18286;SDS011;9269;50.838;12.094;2023-09-08T03:22:14;10.03;;;9.07;;
18286;SDS011;9269;50.838;12.094;2023-09-08T03:24:46;10.30;;;8.93;;
18286;SDS011;9269;50.838;12.094;2023-09-08T03:27:15;10.80;;;9.70;;
18286;SDS011;9269;50.838;12.094;2023-09-08T03:29:43;15.93;;;12.63;;
18286;SDS011;9269;50.838;12.094;2023-09-08T03:32:12;12.87;;;11.57;;
18286;SDS011;9269;50.838;12.094;2023-09-08T03:34:41;11.53;;;10.13;;
18286;SDS011;9269;50.838;12.094;2023-09-08T03:37:12;11.43;;;10.40;;
18286;SDS011;9269;50.838;12.094;2023-09-08T03:39:42;11.50;;;10.40;;
18286;SDS011;9269;50.838;12.094;2023-09-08T03:42:13;10.03;;;9.07;;
18286;SDS011;9269;50.838;12.094;2023-09-08T03:44:42;10.20;;;9.20;;
18286;SDS011;9269;50.838;12.094;2023-09-08T03:47:11;10.93;;;9.83;;
18286;SDS011;9269;50.838;12.094;2023-09-08T03:49:39;9.90;;;9.00;;
18286;SDS011;9269;50.838;12.094;2023-09-08T03:52:08;9.57;;;8.70;;
18286;SDS011;9269;50.838;12.094;2023-09-08T03:54:37;10.13;;;9.13;;
18286;SDS011;9269;50.838;12.094;2023-09-08T03:57:05;9.50;;;8.50;;
18286;SDS011;9269;50.838;12.094;2023-09-08T03:59:36;10.10;;;9.10;;
18286;SDS011;9269;50.838;12.094;2023-09-08T04:02:04;9.63;;;8.67;;
18286;SDS011;9269;50.838;12.094;2023-09-08T04:04:33;9.40;;;8.50;;
18286;SDS011;9269;50.838;12.094;2023-09-08T04:07:01;9.77;;;8.77;;
18286;SDS011;9269;50.838;12.094;2023-09-08T04:09:30;8.93;;;7.97;;
18286;SDS011;9269;50.838;12.094;2023-09-08T04:11:59;8.33;;;7.57;;
18286;SDS011;9269;50.838;12.094;2023-09-08T04:14:28;9.83;;;8.83;;
18286;SDS011;9269;50.838;12.094;2023-09-08T04:17:00;9.47;;;8.47;;
18286;SDS011;9269;50.838;12.094;2023-09-08T04:19:32;8.50;;;7.70;;
18286;SDS011;9269;50.838;12.094;2023-09-08T04:22:02;8.53;;;7.80;;
18286;SDS011;9269;50.838;12.094;2023-09-08T04:24:34;9.37;;;8.53;;
18286;SDS011;9269;50.838;12.094;2023-09-08T04:27:04;10.07;;;9.27;;
18286;SDS011;9269;50.838;12.094;2023-09-08T04:29:33;8.67;;;7.97;;
18286;SDS011;9269;50.838;12.094;2023-09-08T04:32:05;10.47;;;8.80;;
18286;SDS011;9269;50.838;12.094;2023-09-08T04:34:36;8.87;;;7.97;;
18286;SDS011;9269;50.838;12.094;2023-09-08T04:37:05;9.50;;;8.60;;
18286;SDS011;9269;50.838;12.094;2023-09-08T04:39:35;9.07;;;8.17;;
18286;SDS011;9269;50.838;12.094;2023-09-08T04:42:05;9.57;;;8.57;;
18286;SDS011;9269;50.838;12.094;2023-09-08T04:44:34;8.67;;;7.97;;
18286;SDS011;9269;50.838;12.094;2023-09-08T04:47:03;8.90;;;8.10;;
18286;SDS011;9269;50.838;12.094;2023-09-08T04:49:33;10.47;;;8.00;;
18286;SDS011;9269;50.838;12.094;2023-09-08T04:52:03;8.50;;;7.80;;
18286;SDS011;9269;50.838;12.094;2023-09-08T04:54:33;8.20;;;7.53;;
18286;SDS011;9269;50.838;12.094;2023-09-08T04:57:02;10.47;;;8.47;;
18286;SDS011;9269;50.838;12.094;2023-09-08T04:59:47;8.37;;;7.67;;
18286;SDS011;9269;50.838;12.094;2023-09-08T05:02:18;9.07;;;8.27;;
18286;SDS011;9269;50.838;12.094;2023-09-08T05:04:47;8.50;;;7.80;;
18286;SDS011;9269;50.838;12.094;2023-09-08T05:07:16;9.77;;;8.63;;
18286;SDS011;9269;50.838;12.094;2023-09-08T05:09:46;9.63;;;8.73;;
18286;SDS011;9269;50.838;12.094;2023-09-08T05:12:15;8.87;;;7.97;;
18286;SDS011;9269;50.838;12.094;2023-09-08T05:14:45;9.23;;;8.30;;
18286;SDS011;9269;50.838;12.094;2023-09-08T05:17:15;9.67;;;8.67;;
18286;SDS011;9269;50.838;12.094;2023-09-08T05:19:46;8.93;;;8.03;;
18286;SDS011;9269;50.838;12.094;2023-09-08T05:22:14;10.43;;;8.90;;
18286;SDS011;9269;50.838;12.094;2023-09-08T05:24:43;9.77;;;8.77;;
18286;SDS011;9269;50.838;12.094;2023-09-08T05:27:11;8.97;;;8.17;;
18286;SDS011;9269;50.838;12.094;2023-09-08T05:29:40;11.10;;;10.00;;
18286;SDS011;9269;50.838;12.094;2023-09-08T05:32:09;9.10;;;8.13;;
18286;SDS011;9269;50.838;12.094;2023-09-08T05:34:39;9.53;;;8.57;;
18286;SDS011;9269;50.838;12.094;2023-09-08T05:37:11;10.07;;;9.07;;
18286;SDS011;9269;50.838;12.094;2023-09-08T05:39:39;10.43;;;9.40;;
18286;SDS011;9269;50.838;12.094;2023-09-08T05:42:10;9.73;;;8.73;;
18286;SDS011;9269;50.838;12.094;2023-09-08T05:44:39;9.93;;;8.93;;
18286;SDS011;9269;50.838;12.094;2023-09-08T05:47:09;10.20;;;9.07;;
18286;SDS011;9269;50.838;12.094;2023-09-08T05:49:38;12.03;;;10.23;;
18286;SDS011;9269;50.838;12.094;2023-09-08T05:52:06;10.40;;;9.50;;
18286;SDS011;9269;50.838;12.094;2023-09-08T05:54:36;9.47;;;8.47;;
18286;SDS011;9269;50.838;12.094;2023-09-08T05:57:05;8.90;;;7.90;;
18286;SDS011;9269;50.838;12.094;2023-09-08T05:59:34;8.37;;;7.57;;
18286;SDS011;9269;50.838;12.094;2023-09-08T06:02:03;8.53;;;7.50;;
18286;SDS011;9269;50.838;12.094;2023-09-08T06:04:31;9.07;;;8.10;;
18286;SDS011;9269;50.838;12.094;2023-09-08T06:07:01;9.43;;;8.50;;
18286;SDS011;9269;50.838;12.094;2023-09-08T06:09:31;8.70;;;7.90;;
18286;SDS011;9269;50.838;12.094;2023-09-08T06:12:03;8.83;;;8.03;;
18286;SDS011;9269;50.838;12.094;2023-09-08T06:14:32;8.90;;;7.97;;
18286;SDS011;9269;50.838;12.094;2023-09-08T06:17:03;10.00;;;9.10;;
18286;SDS011;9269;50.838;12.094;2023-09-08T06:19:32;9.03;;;8.17;;
18286;SDS011;9269;50.838;12.094;2023-09-08T06:22:00;9.30;;;8.40;;
18286;SDS011;9269;50.838;12.094;2023-09-08T06:24:30;9.30;;;8.33;;
18286;SDS011;9269;50.838;12.094;2023-09-08T06:27:00;9.77;;;8.83;;
18286;SDS011;9269;50.838;12.094;2023-09-08T06:29:30;9.33;;;8.30;;
18286;SDS011;9269;50.838;12.094;2023-09-08T06:31:59;10.10;;;9.10;;
18286;SDS011;9269;50.838;12.094;2023-09-08T06:34:28;9.67;;;8.67;;
18286;SDS011;9269;50.838;12.094;2023-09-08T06:36:56;10.00;;;8.70;;
18286;SDS011;9269;50.838;12.094;2023-09-08T06:39:25;10.03;;;8.60;;
18286;SDS011;9269;50.838;12.094;2023-09-08T06:41:54;10.03;;;9.10;;
18286;SDS011;9269;50.838;12.094;2023-09-08T06:44:22;9.30;;;8.40;;
18286;SDS011;9269;50.838;12.094;2023-09-08T06:46:53;9.30;;;8.40;;
18286;SDS011;9269;50.838;12.094;2023-09-08T06:49:22;9.77;;;8.90;;
18286;SDS011;9269;50.838;12.094;2023-09-08T06:51:51;9.17;;;8.33;;
18286;SDS011;9269;50.838;12.094;2023-09-08T06:54:19;8.63;;;7.73;;
18286;SDS011;9269;50.838;12.094;2023-09-08T06:56:48;10.97;;;7.90;;
18286;SDS011;9269;50.838;12.094;2023-09-08T06:59:17;8.87;;;8.07;;
18286;SDS011;9269;50.838;12.094;2023-09-08T07:01:45;9.33;;;8.40;;
18286;SDS011;9269;50.838;12.094;2023-09-08T07:04:15;8.27;;;7.47;;
18286;SDS011;9269;50.838;12.094;2023-09-08T07:06:44;8.97;;;7.73;;
18286;SDS011;9269;50.838;12.094;2023-09-08T07:09:13;8.50;;;7.63;;
18286;SDS011;9269;50.838;12.094;2023-09-08T07:11:42;8.97;;;8.10;;
18286;SDS011;9269;50.838;12.094;2023-09-08T07:14:11;8.23;;;7.50;;
18286;SDS011;9269;50.838;12.094;2023-09-08T07:16:39;8.53;;;7.63;;
18286;SDS011;9269;50.838;12.094;2023-09-08T07:19:09;8.13;;;7.07;;
18286;SDS011;9269;50.838;12.094;2023-09-08T07:21:39;8.73;;;7.57;;
18286;SDS011;9269;50.838;12.094;2023-09-08T07:24:08;8.53;;;7.73;;
18286;SDS011;9269;50.838;12.094;2023-09-08T07:26:37;8.27;;;7.50;;
18286;SDS011;9269;50.838;12.094;2023-09-08T07:29:07;7.43;;;6.83;;
18286;SDS011;9269;50.838;12.094;2023-09-08T07:31:37;7.73;;;7.13;;
18286;SDS011;9269;50.838;12.094;2023-09-08T07:34:07;8.10;;;7.30;;
18286;SDS011;9269;50.838;12.094;2023-09-08T07:36:37;7.53;;;6.83;;
18286;SDS011;9269;50.838;12.094;2023-09-08T07:39:07;7.77;;;7.07;;
18286;SDS011;9269;50.838;12.094;2023-09-08T07:41:36;7.13;;;6.47;;
18286;SDS011;9269;50.838;12.094;2023-09-08T07:44:07;8.00;;;6.47;;
18286;SDS011;9269;50.838;12.094;2023-09-08T07:46:36;7.37;;;6.50;;
18286;SDS011;9269;50.838;12.094;2023-09-08T07:49:06;8.40;;;7.37;;
18286;SDS011;9269;50.838;12.094;2023-09-08T07:51:36;7.93;;;7.20;;
18286;SDS011;9269;50.838;12.094;2023-09-08T07:54:07;8.37;;;7.17;;
18286;SDS011;9269;50.838;12.094;2023-09-08T07:56:36;8.60;;;7.63;;
18286;SDS011;9269;50.838;12.094;2023-09-08T07:59:06;7.90;;;7.20;;
18286;SDS011;9269;50.838;12.094;2023-09-08T08:01:35;6.63;;;6.03;;
18286;SDS011;9269;50.838;12.094;2023-09-08T08:04:03;6.97;;;6.37;;
18286;SDS011;9269;50.838;12.094;2023-09-08T08:06:31;7.60;;;6.90;;
18286;SDS011;9269;50.838;12.094;2023-09-08T08:09:00;7.73;;;7.00;;
18286;SDS011;9269;50.838;12.094;2023-09-08T08:11:31;8.37;;;7.57;;
18286;SDS011;9269;50.838;12.094;2023-09-08T08:13:59;7.30;;;6.70;;
18286;SDS011;9269;50.838;12.094;2023-09-08T08:16:27;8.57;;;7.07;;
18286;SDS011;9269;50.838;12.094;2023-09-08T08:18:56;7.53;;;6.83;;
18286;SDS011;9269;50.838;12.094;2023-09-08T08:21:26;7.03;;;6.33;;
18286;SDS011;9269;50.838;12.094;2023-09-08T08:23:56;7.07;;;6.47;;
18286;SDS011;9269;50.838;12.094;2023-09-08T08:26:34;7.30;;;6.43;;
18286;SDS011;9269;50.838;12.094;2023-09-08T08:29:02;7.40;;;6.80;;
18286;SDS011;9269;50.838;12.094;2023-09-08T08:31:31;6.47;;;5.87;;
18286;SDS011;9269;50.838;12.094;2023-09-08T08:34:00;7.47;;;6.37;;
18286;SDS011;9269;50.838;12.094;2023-09-08T08:36:29;6.97;;;6.10;;
18286;SDS011;9269;50.838;12.094;2023-09-08T08:38:59;7.23;;;6.63;;
18286;SDS011;9269;50.838;12.094;2023-09-08T08:41:28;7.70;;;6.97;;
18286;SDS011;9269;50.838;12.094;2023-09-08T08:43:58;7.17;;;6.50;;
18286;SDS011;9269;50.838;12.094;2023-09-08T08:46:29;7.60;;;7.00;;
18286;SDS011;9269;50.838;12.094;2023-09-08T08:48:58;6.87;;;6.20;;
18286;SDS011;9269;50.838;12.094;2023-09-08T08:51:30;6.93;;;6.33;;
18286;SDS011;9269;50.838;12.094;2023-09-08T08:53:59;6.97;;;6.27;;
18286;SDS011;9269;50.838;12.094;2023-09-08T08:56:31;7.97;;;7.20;;
18286;SDS011;9269;50.838;12.094;2023-09-08T08:59:04;8.40;;;7.60;;
18286;SDS011;9269;50.838;12.094;2023-09-08T09:01:34;7.60;;;6.90;;
18286;SDS011;9269;50.838;12.094;2023-09-08T09:04:06;6.63;;;6.03;;
18286;SDS011;9269;50.838;12.094;2023-09-08T09:06:39;6.93;;;6.23;;
18286;SDS011;9269;50.838;12.094;2023-09-08T09:09:08;7.40;;;6.43;;
18286;SDS011;9269;50.838;12.094;2023-09-08T09:11:39;6.30;;;5.70;;
18286;SDS011;9269;50.838;12.094;2023-09-08T09:14:11;6.03;;;5.23;;
18286;SDS011;9269;50.838;12.094;2023-09-08T09:16:41;5.73;;;5.20;;
18286;SDS011;9269;50.838;12.094;2023-09-08T09:19:17;6.33;;;5.07;;
18286;SDS011;9269;50.838;12.094;2023-09-08T09:22:07;5.37;;;4.97;;
18286;SDS011;9269;50.838;12.094;2023-09-08T09:24:36;5.50;;;5.03;;
18286;SDS011;9269;50.838;12.094;2023-09-08T09:27:08;5.37;;;4.87;;
18286;SDS011;9269;50.838;12.094;2023-09-08T09:29:44;7.20;;;5.40;;
18286;SDS011;9269;50.838;12.094;2023-09-08T09:32:14;5.63;;;5.13;;
18286;SDS011;9269;50.838;12.094;2023-09-08T09:34:47;5.10;;;4.70;;
18286;SDS011;9269;50.838;12.094;2023-09-08T09:37:18;6.47;;;4.83;;
18286;SDS011;9269;50.838;12.094;2023-09-08T09:39:48;6.37;;;4.80;;
18286;SDS011;9269;50.838;12.094;2023-09-08T09:42:17;6.40;;;5.37;;
18286;SDS011;9269;50.838;12.094;2023-09-08T09:44:49;8.73;;;4.97;;
18286;SDS011;9269;50.838;12.094;2023-09-08T09:47:38;5.00;;;4.50;;
18286;SDS011;9269;50.838;12.094;2023-09-08T09:50:07;5.03;;;4.63;;
18286;SDS011;9269;50.838;12.094;2023-09-08T09:52:38;5.17;;;4.67;;
18286;SDS011;9269;50.838;12.094;2023-09-08T09:55:08;6.30;;;4.93;;
18286;SDS011;9269;50.838;12.094;2023-09-08T09:57:46;5.13;;;4.63;;
18286;SDS011;9269;50.838;12.094;2023-09-08T10:00:18;5.47;;;4.97;;
18286;SDS011;9269;50.838;12.094;2023-09-08T10:02:47;5.33;;;4.50;;
18286;SDS011;9269;50.838;12.094;2023-09-08T10:05:17;4.50;;;4.20;;
18286;SDS011;9269;50.838;12.094;2023-09-08T10:07:47;5.03;;;4.53;;
18286;SDS011;9269;50.838;12.094;2023-09-08T10:10:18;7.20;;;4.50;;
18286;SDS011;9269;50.838;12.094;2023-09-08T10:12:51;5.73;;;4.83;;
18286;SDS011;9269;50.838;12.094;2023-09-08T10:15:23;4.70;;;4.20;;
18286;SDS011;9269;50.838;12.094;2023-09-08T10:17:53;5.27;;;4.87;;
18286;SDS011;9269;50.838;12.094;2023-09-08T10:20:24;5.50;;;5.00;;
18286;SDS011;9269;50.838;12.094;2023-09-08T10:22:56;5.17;;;4.77;;
18286;SDS011;9269;50.838;12.094;2023-09-08T10:25:31;5.17;;;4.47;;
18286;SDS011;9269;50.838;12.094;2023-09-08T10:28:03;5.90;;;4.97;;
18286;SDS011;9269;50.838;12.094;2023-09-08T10:30:37;6.67;;;5.10;;
18286;SDS011;9269;50.838;12.094;2023-09-08T10:33:06;4.70;;;4.30;;
18286;SDS011;9269;50.838;12.094;2023-09-08T10:35:36;4.80;;;4.30;;
18286;SDS011;9269;50.838;12.094;2023-09-08T10:38:24;5.17;;;4.67;;
18286;SDS011;9269;50.838;12.094;2023-09-08T10:40:53;5.00;;;4.60;;
18286;SDS011;9269;50.838;12.094;2023-09-08T10:43:43;5.10;;;4.63;;
18286;SDS011;9269;50.838;12.094;2023-09-08T10:46:20;4.90;;;4.50;;
18286;SDS011;9269;50.838;12.094;2023-09-08T10:48:50;4.83;;;4.43;;
18286;SDS011;9269;50.838;12.094;2023-09-08T10:51:21;5.20;;;4.67;;
18286;SDS011;9269;50.838;12.094;2023-09-08T10:53:53;5.07;;;4.40;;
18286;SDS011;9269;50.838;12.094;2023-09-08T10:56:22;5.33;;;4.60;;
18286;SDS011;9269;50.838;12.094;2023-09-08T10:58:55;4.67;;;4.27;;
18286;SDS011;9269;50.838;12.094;2023-09-08T11:01:31;4.80;;;4.30;;
18286;SDS011;9269;50.838;12.094;2023-09-08T11:03:59;4.37;;;4.03;;
18286;SDS011;9269;50.838;12.094;2023-09-08T11:06:37;4.83;;;4.43;;
18286;SDS011;9269;50.838;12.094;2023-09-08T11:09:06;4.40;;;4.10;;
18286;SDS011;9269;50.838;12.094;2023-09-08T11:11:35;5.60;;;4.93;;
18286;SDS011;9269;50.838;12.094;2023-09-08T11:14:04;5.10;;;4.63;;
18286;SDS011;9269;50.838;12.094;2023-09-08T11:16:37;5.40;;;4.30;;
18286;SDS011;9269;50.838;12.094;2023-09-08T11:19:06;4.90;;;4.50;;
18286;SDS011;9269;50.838;12.094;2023-09-08T11:21:36;5.40;;;4.40;;
18286;SDS011;9269;50.838;12.094;2023-09-08T11:24:08;4.50;;;4.20;;
18286;SDS011;9269;50.838;12.094;2023-09-08T11:26:40;4.77;;;4.37;;
18286;SDS011;9269;50.838;12.094;2023-09-08T11:29:12;5.13;;;4.73;;
18286;SDS011;9269;50.838;12.094;2023-09-08T11:31:44;5.10;;;4.53;;
18286;SDS011;9269;50.838;12.094;2023-09-08T11:34:20;4.60;;;4.20;;
18286;SDS011;9269;50.838;12.094;2023-09-08T11:36:49;5.00;;;4.50;;
18286;SDS011;9269;50.838;12.094;2023-09-08T11:39:36;4.87;;;4.30;;
18286;SDS011;9269;50.838;12.094;2023-09-08T11:42:06;5.10;;;4.60;;
18286;SDS011;9269;50.838;12.094;2023-09-08T11:44:36;5.57;;;4.73;;
18286;SDS011;9269;50.838;12.094;2023-09-08T11:47:07;5.20;;;4.70;;
18286;SDS011;9269;50.838;12.094;2023-09-08T11:49:37;4.63;;;4.23;;
18286;SDS011;9269;50.838;12.094;2023-09-08T11:52:07;5.13;;;4.67;;
18286;SDS011;9269;50.838;12.094;2023-09-08T11:54:38;4.80;;;4.40;;
18286;SDS011;9269;50.838;12.094;2023-09-08T11:57:25;5.37;;;4.50;;
18286;SDS011;9269;50.838;12.094;2023-09-08T11:59:56;4.77;;;4.30;;
18286;SDS011;9269;50.838;12.094;2023-09-08T12:02:26;4.80;;;4.40;;
18286;SDS011;9269;50.838;12.094;2023-09-08T12:04:55;4.93;;;4.43;;
18286;SDS011;9269;50.838;12.094;2023-09-08T12:07:24;5.37;;;4.87;;
18286;SDS011;9269;50.838;12.094;2023-09-08T12:09:53;4.87;;;4.47;;
18286;SDS011;9269;50.838;12.094;2023-09-08T12:12:22;5.40;;;4.90;;
18286;SDS011;9269;50.838;12.094;2023-09-08T12:14:50;4.93;;;4.50;;
18286;SDS011;9269;50.838;12.094;2023-09-08T12:17:20;4.97;;;4.57;;
18286;SDS011;9269;50.838;12.094;2023-09-08T12:19:53;4.90;;;4.40;;
18286;SDS011;9269;50.838;12.094;2023-09-08T12:22:23;4.57;;;4.17;;
18286;SDS011;9269;50.838;12.094;2023-09-08T12:24:57;5.17;;;4.73;;
18286;SDS011;9269;50.838;12.094;2023-09-08T12:27:29;5.17;;;4.67;;
18286;SDS011;9269;50.838;12.094;2023-09-08T12:29:58;4.70;;;4.30;;
18286;SDS011;9269;50.838;12.094;2023-09-08T12:32:30;5.03;;;4.50;;
18286;SDS011;9269;50.838;12.094;2023-09-08T12:35:02;5.07;;;4.63;;
18286;SDS011;9269;50.838;12.094;2023-09-08T12:37:52;5.10;;;4.63;;
18286;SDS011;9269;50.838;12.094;2023-09-08T12:40:25;5.20;;;4.43;;
18286;SDS011;9269;50.838;12.094;2023-09-08T12:42:54;5.30;;;4.87;;
18286;SDS011;9269;50.838;12.094;2023-09-08T12:45:32;5.00;;;4.57;;
18286;SDS011;9269;50.838;12.094;2023-09-08T12:48:02;4.80;;;4.40;;
18286;SDS011;9269;50.838;12.094;2023-09-08T12:50:35;5.13;;;4.63;;
18286;SDS011;9269;50.838;12.094;2023-09-08T12:53:04;5.47;;;4.83;;
18286;SDS011;9269;50.838;12.094;2023-09-08T12:55:33;4.80;;;4.40;;
18286;SDS011;9269;50.838;12.094;2023-09-08T12:58:02;6.13;;;4.50;;
18286;SDS011;9269;50.838;12.094;2023-09-08T13:00:50;4.40;;;4.00;;
18286;SDS011;9269;50.838;12.094;2023-09-08T13:03:38;4.57;;;4.27;;
18286;SDS011;9269;50.838;12.094;2023-09-08T13:06:24;4.23;;;3.83;;
18286;SDS011;9269;50.838;12.094;2023-09-08T13:08:53;4.77;;;4.10;;
18286;SDS011;9269;50.838;12.094;2023-09-08T13:11:28;4.63;;;4.30;;
18286;SDS011;9269;50.838;12.094;2023-09-08T13:13:57;4.73;;;4.33;;
18286;SDS011;9269;50.838;12.094;2023-09-08T13:16:27;4.80;;;4.17;;
18286;SDS011;9269;50.838;12.094;2023-09-08T13:18:56;4.53;;;4.20;;
18286;SDS011;9269;50.838;12.094;2023-09-08T13:21:26;4.47;;;4.13;;
18286;SDS011;9269;50.838;12.094;2023-09-08T13:23:55;4.70;;;4.30;;
18286;SDS011;9269;50.838;12.094;2023-09-08T13:26:24;5.53;;;4.60;;
18286;SDS011;9269;50.838;12.094;2023-09-08T13:28:53;5.47;;;4.73;;
18286;SDS011;9269;50.838;12.094;2023-09-08T13:31:21;4.40;;;4.00;;
18286;SDS011;9269;50.838;12.094;2023-09-08T13:33:51;4.73;;;4.23;;
18286;SDS011;9269;50.838;12.094;2023-09-08T13:36:20;4.70;;;4.30;;
18286;SDS011;9269;50.838;12.094;2023-09-08T13:38:51;4.83;;;4.43;;
18286;SDS011;9269;50.838;12.094;2023-09-08T13:41:19;4.60;;;4.30;;
18286;SDS011;9269;50.838;12.094;2023-09-08T13:43:48;5.10;;;4.70;;
18286;SDS011;9269;50.838;12.094;2023-09-08T13:46:17;4.70;;;4.30;;
18286;SDS011;9269;50.838;12.094;2023-09-08T13:48:46;4.80;;;4.30;;
18286;SDS011;9269;50.838;12.094;2023-09-08T13:51:18;5.40;;;4.40;;
18286;SDS011;9269;50.838;12.094;2023-09-08T13:53:48;5.30;;;4.33;;
18286;SDS011;9269;50.838;12.094;2023-09-08T13:56:20;4.80;;;4.40;;
18286;SDS011;9269;50.838;12.094;2023-09-08T13:58:52;4.57;;;4.27;;
18286;SDS011;9269;50.838;12.094;2023-09-08T14:01:23;5.17;;;4.67;;
18286;SDS011;9269;50.838;12.094;2023-09-08T14:04:00;5.03;;;4.50;;
18286;SDS011;9269;50.838;12.094;2023-09-08T14:06:35;4.10;;;3.80;;
18286;SDS011;9269;50.838;12.094;2023-09-08T14:09:07;4.80;;;4.40;;
18286;SDS011;9269;50.838;12.094;2023-09-08T14:11:57;4.90;;;4.13;;
18286;SDS011;9269;50.838;12.094;2023-09-08T14:14:29;6.33;;;4.57;;
18286;SDS011;9269;50.838;12.094;2023-09-08T14:16:58;4.70;;;4.27;;
18286;SDS011;9269;50.838;12.094;2023-09-08T14:19:26;5.10;;;4.60;;
18286;SDS011;9269;50.838;12.094;2023-09-08T14:21:55;5.53;;;4.20;;
18286;SDS011;9269;50.838;12.094;2023-09-08T14:24:23;5.70;;;4.77;;
18286;SDS011;9269;50.838;12.094;2023-09-08T14:26:52;4.33;;;3.93;;
18286;SDS011;9269;50.838;12.094;2023-09-08T14:29:23;4.87;;;4.10;;
18286;SDS011;9269;50.838;12.094;2023-09-08T14:31:51;4.57;;;4.10;;
18286;SDS011;9269;50.838;12.094;2023-09-08T14:34:20;5.30;;;4.20;;
18286;SDS011;9269;50.838;12.094;2023-09-08T14:36:49;4.67;;;4.27;;
18286;SDS011;9269;50.838;12.094;2023-09-08T14:39:18;4.43;;;4.10;;
18286;SDS011;9269;50.838;12.094;2023-09-08T14:41:48;4.97;;;4.57;;
18286;SDS011;9269;50.838;12.094;2023-09-08T14:44:18;4.20;;;3.90;;
18286;SDS011;9269;50.838;12.094;2023-09-08T14:46:50;5.43;;;4.57;;
18286;SDS011;9269;50.838;12.094;2023-09-08T14:49:19;4.63;;;3.93;;
18286;SDS011;9269;50.838;12.094;2023-09-08T14:51:48;4.53;;;4.23;;
18286;SDS011;9269;50.838;12.094;2023-09-08T14:54:17;5.23;;;4.17;;
18286;SDS011;9269;50.838;12.094;2023-09-08T14:56:46;4.90;;;4.47;;
18286;SDS011;9269;50.838;12.094;2023-09-08T14:59:15;4.57;;;4.20;;
18286;SDS011;9269;50.838;12.094;2023-09-08T15:01:44;4.70;;;4.30;;
18286;SDS011;9269;50.838;12.094;2023-09-08T15:04:14;4.60;;;4.20;;